Time,TemperatureF,DewpointF,PressureIn,WindDirection,WindDirectionDegrees,WindSpeedMPH,WindSpeedGustMPH,Humidity,HourlyPrecipIn,Conditions,Clouds,dailyrainin,SolarRadiationWatts/m^2,SoftwareType,DateUTC
2013-06-01 00:01:00,76.5,74.0,30.00,NE,53,2.0,4.0,92,0.04,,-RA,0.31,130.00,VWS V14.01,2013-06-01 04:01:00,
2013-06-01 00:06:00,76.4,73.9,30.00,East,96,0.0,2.0,92,0.05,,-RA,0.00,130.00,VWS V14.01,2013-06-01 04:06:00,
2013-06-01 00:11:00,76.4,73.9,29.99,East,81,4.0,4.0,92,0.05,,-RA,0.00,130.00,VWS V14.01,2013-06-01 04:11:00,
2013-06-01 00:16:00,76.3,73.8,29.99,East,85,1.0,2.0,92,0.05,,-RA,0.00,130.00,VWS V14.01,2013-06-01 04:16:00,
2013-06-01 00:21:00,76.3,73.8,29.99,East,85,0.0,4.0,92,0.05,,-RA,0.00,130.00,VWS V14.01,2013-06-01 04:21:00,
2013-06-01 00:26:00,76.4,74.2,29.99,ESE,107,0.0,4.0,93,0.05,,-RA,0.00,130.00,VWS V14.01,2013-06-01 04:26:00,
2013-06-01 00:31:00,76.4,74.2,29.98,ESE,103,2.0,5.0,93,0.05,,-RA,0.00,130.00,VWS V14.01,2013-06-01 04:31:00,
2013-06-01 00:36:00,76.4,74.2,29.99,SE,134,2.0,6.0,93,0.05,,-RA,0.00,130.00,VWS V14.01,2013-06-01 04:36:00,
2013-06-01 00:41:00,76.4,74.2,29.99,ESE,109,2.0,5.0,93,0.05,,-RA,0.00,130.00,VWS V14.01,2013-06-01 04:41:00,
2013-06-01 00:46:00,76.2,74.0,29.99,ESE,115,0.0,7.0,93,0.06,,-RA,0.01,130.00,VWS V14.01,2013-06-01 04:46:00,
2013-06-01 00:51:00,76.0,73.8,29.98,ESE,117,2.0,5.0,93,0.04,,-RA,0.01,130.00,VWS V14.01,2013-06-01 04:51:00,
2013-06-01 00:56:00,75.9,73.7,29.98,East,94,1.0,4.0,93,0.02,,-RA,0.01,130.00,VWS V14.01,2013-06-01 04:56:00,
2013-06-01 01:01:00,75.8,73.6,29.98,ESE,108,3.0,4.0,93,0.02,,-RA,0.01,130.00,VWS V14.01,2013-06-01 05:01:00,
2013-06-01 01:06:00,75.8,73.6,29.98,ESE,103,5.0,6.0,93,0.01,,-RA,0.01,130.00,VWS V14.01,2013-06-01 05:06:00,
2013-06-01 01:11:00,75.9,73.7,29.98,SE,134,2.0,7.0,93,0.01,,-RA,0.01,130.00,VWS V14.01,2013-06-01 05:11:00,
2013-06-01 01:16:00,75.9,73.7,29.98,ESE,111,5.0,5.0,93,0.01,,-RA,0.01,130.00,VWS V14.01,2013-06-01 05:16:00,
2013-06-01 01:21:00,75.9,73.7,29.98,ESE,103,0.0,6.0,93,0.01,,-RA,0.01,130.00,VWS V14.01,2013-06-01 05:21:00,
2013-06-01 01:26:00,76.0,73.8,29.98,East,91,3.0,9.0,93,0.01,,-RA,0.01,130.00,VWS V14.01,2013-06-01 05:26:00,
2013-06-01 01:31:00,76.0,73.8,29.97,East,101,5.0,5.0,93,0.01,,-RA,0.01,130.00,VWS V14.01,2013-06-01 05:31:00,
2013-06-01 01:36:00,76.0,73.8,29.97,SE,133,1.0,7.0,93,0.01,,-RA,0.01,130.00,VWS V14.01,2013-06-01 05:36:00,
2013-06-01 01:41:00,76.0,73.8,29.97,ESE,111,1.0,3.0,93,0.01,,-RA,0.01,130.00,VWS V14.01,2013-06-01 05:41:00,
2013-06-01 01:46:00,75.9,73.7,29.97,ESE,109,2.0,4.0,93,0.01,,-RA,0.01,130.00,VWS V14.01,2013-06-01 05:46:00,
2013-06-01 01:51:00,75.8,73.6,29.97,ESE,117,1.0,4.0,93,0.00,,-RA,0.01,130.00,VWS V14.01,2013-06-01 05:51:00,
2013-06-01 01:56:00,75.8,73.6,29.97,SE,135,1.0,6.0,93,0.00,,-RA,0.01,130.00,VWS V14.01,2013-06-01 05:56:00,
2013-06-01 02:01:00,75.7,73.5,29.97,SSE,155,1.0,4.0,93,0.00,,-RA,0.01,130.00,VWS V14.01,2013-06-01 06:01:00,
2013-06-01 02:06:00,75.8,73.6,29.96,SSE,148,3.0,4.0,93,0.00,,-RA,0.01,130.00,VWS V14.01,2013-06-01 06:06:00,
2013-06-01 02:11:00,75.7,73.5,29.96,SE,138,1.0,4.0,93,0.00,,-RA,0.01,130.00,VWS V14.01,2013-06-01 06:11:00,
2013-06-01 02:16:00,75.7,73.5,29.96,SE,134,0.0,5.0,93,0.00,,-RA,0.01,130.00,VWS V14.01,2013-06-01 06:16:00,
2013-06-01 02:21:00,75.7,73.5,29.96,ESE,123,6.0,9.0,93,0.00,,-RA,0.01,130.00,VWS V14.01,2013-06-01 06:21:00,
2013-06-01 02:26:00,75.6,73.4,29.95,SSE,150,0.0,9.0,93,0.00,,-RA,0.01,130.00,VWS V14.01,2013-06-01 06:26:00,
2013-06-01 02:31:00,75.5,73.3,29.95,SE,138,1.0,7.0,93,0.00,,-RA,0.01,130.00,VWS V14.01,2013-06-01 06:31:00,
2013-06-01 02:36:00,75.1,72.9,29.95,SE,132,1.0,6.0,93,0.00,,-RA,0.01,130.00,VWS V14.01,2013-06-01 06:36:00,
2013-06-01 02:41:00,75.0,72.8,29.95,SE,141,2.0,7.0,93,0.00,,-RA,0.01,130.00,VWS V14.01,2013-06-01 06:41:00,
2013-06-01 02:46:00,75.0,72.8,29.95,SE,127,3.0,6.0,93,0.00,,-RA,0.01,130.00,VWS V14.01,2013-06-01 06:46:00,
2013-06-01 02:51:00,75.1,72.9,29.95,ESE,123,1.0,4.0,93,0.00,,-RA,0.01,130.00,VWS V14.01,2013-06-01 06:51:00,
2013-06-01 02:56:00,75.1,72.9,29.95,ESE,123,1.0,2.0,93,0.00,,-RA,0.01,130.00,VWS V14.01,2013-06-01 06:56:00,
2013-06-01 03:01:00,75.2,73.0,29.95,ESE,123,2.0,3.0,93,0.00,,-RA,0.01,130.00,VWS V14.01,2013-06-01 07:01:00,
2013-06-01 03:06:00,75.1,72.9,29.95,ESE,123,0.0,2.0,93,0.00,,-RA,0.01,130.00,VWS V14.01,2013-06-01 07:06:00,
2013-06-01 03:11:00,75.1,72.9,29.95,ESE,123,0.0,2.0,93,0.00,,-RA,0.01,130.00,VWS V14.01,2013-06-01 07:11:00,
2013-06-01 03:16:00,75.1,72.9,29.95,SE,124,0.0,1.0,93,0.00,,-RA,0.01,130.00,VWS V14.01,2013-06-01 07:16:00,
2013-06-01 03:21:00,75.1,72.9,29.95,ESE,123,0.0,0.0,93,0.00,,-RA,0.01,130.00,VWS V14.01,2013-06-01 07:21:00,
2013-06-01 03:26:00,75.1,72.9,29.95,ESE,123,0.0,0.0,93,0.00,,-RA,0.01,130.00,VWS V14.01,2013-06-01 07:26:00,
2013-06-01 03:31:00,75.1,72.9,29.95,ESE,123,0.0,0.0,93,0.00,,-RA,0.01,130.00,VWS V14.01,2013-06-01 07:31:00,
2013-06-01 03:36:00,75.1,72.9,29.94,ESE,123,0.0,0.0,93,0.00,,-RA,0.01,130.00,VWS V14.01,2013-06-01 07:36:00,
2013-06-01 03:41:00,75.1,72.9,29.94,SE,124,0.0,0.0,93,0.00,,-RA,0.01,130.00,VWS V14.01,2013-06-01 07:41:00,
2013-06-01 03:46:00,75.1,72.9,29.94,ESE,123,0.0,0.0,93,0.00,,-RA,0.01,130.00,VWS V14.01,2013-06-01 07:46:00,
2013-06-01 03:51:00,75.1,72.9,29.94,SE,124,0.0,0.0,93,0.00,,-RA,0.01,130.00,VWS V14.01,2013-06-01 07:51:00,
2013-06-01 03:56:00,75.1,72.9,29.95,ESE,123,0.0,0.0,93,0.00,,-RA,0.01,130.00,VWS V14.01,2013-06-01 07:56:00,
2013-06-01 04:01:00,75.1,72.9,29.94,ESE,123,0.0,0.0,93,0.00,,-RA,0.01,130.00,VWS V14.01,2013-06-01 08:01:00,
2013-06-01 04:05:00,75.1,72.9,29.94,ESE,123,0.0,0.0,93,0.00,,-RA,0.01,130.00,VWS V14.01,2013-06-01 08:05:00,
2013-06-01 04:10:00,75.1,72.9,29.94,SE,124,0.0,0.0,93,0.00,,-RA,0.01,130.00,VWS V14.01,2013-06-01 08:10:00,
2013-06-01 04:15:00,75.0,72.8,29.93,ESE,123,0.0,0.0,93,0.00,,-RA,0.01,130.00,VWS V14.01,2013-06-01 08:15:00,
2013-06-01 04:20:00,75.0,72.8,29.93,ESE,123,0.0,0.0,93,0.00,,-RA,0.01,130.00,VWS V14.01,2013-06-01 08:20:00,
2013-06-01 04:25:00,75.0,73.2,29.93,ESE,123,0.0,0.0,94,0.00,,-RA,0.01,130.00,VWS V14.01,2013-06-01 08:25:00,
2013-06-01 04:30:00,75.0,73.2,29.93,ESE,123,0.0,0.0,94,0.00,,-RA,0.01,130.00,VWS V14.01,2013-06-01 08:30:00,
2013-06-01 04:35:00,75.1,73.3,29.93,ESE,123,0.0,0.0,94,0.00,,-RA,0.01,130.00,VWS V14.01,2013-06-01 08:35:00,
2013-06-01 04:40:00,75.1,73.3,29.93,ESE,123,0.0,1.0,94,0.00,,-RA,0.01,130.00,VWS V14.01,2013-06-01 08:40:00,
2013-06-01 04:45:00,75.1,73.3,29.93,ESE,123,0.0,1.0,94,0.00,,-RA,0.01,130.00,VWS V14.01,2013-06-01 08:45:00,
2013-06-01 04:50:00,75.1,73.3,29.93,ESE,123,0.0,1.0,94,0.00,,-RA,0.01,130.00,VWS V14.01,2013-06-01 08:50:00,
2013-06-01 04:55:00,75.1,73.3,29.93,ESE,123,0.0,1.0,94,0.00,,-RA,0.01,130.00,VWS V14.01,2013-06-01 08:55:00,
2013-06-01 05:00:00,75.1,73.3,29.92,ESE,123,0.0,1.0,94,0.00,,-RA,0.01,130.00,VWS V14.01,2013-06-01 09:00:00,
2013-06-01 05:05:00,75.1,73.3,29.92,ESE,123,0.0,1.0,94,0.00,,-RA,0.01,130.00,VWS V14.01,2013-06-01 09:05:00,
2013-06-01 05:10:00,75.1,73.3,29.93,ESE,123,0.0,1.0,94,0.00,,-RA,0.01,130.00,VWS V14.01,2013-06-01 09:10:00,
2013-06-01 05:15:00,75.1,73.3,29.92,ESE,123,0.0,1.0,94,0.00,,-RA,0.01,130.00,VWS V14.01,2013-06-01 09:15:00,
2013-06-01 05:20:00,75.1,73.3,29.93,ESE,123,0.0,1.0,94,0.00,,-RA,0.01,130.00,VWS V14.01,2013-06-01 09:20:00,
2013-06-01 05:25:00,75.1,73.3,29.93,ESE,123,0.0,0.0,94,0.00,,-RA,0.01,130.00,VWS V14.01,2013-06-01 09:25:00,
2013-06-01 05:30:00,75.1,73.3,29.93,ESE,123,0.0,1.0,94,0.00,,-RA,0.01,130.00,VWS V14.01,2013-06-01 09:30:00,
2013-06-01 05:35:00,75.1,73.3,29.93,ESE,123,0.0,1.0,94,0.00,,-RA,0.01,130.00,VWS V14.01,2013-06-01 09:35:00,
2013-06-01 05:40:00,75.1,73.3,29.94,ESE,123,0.0,1.0,94,0.00,,-RA,0.01,130.00,VWS V14.01,2013-06-01 09:40:00,
2013-06-01 05:45:00,75.1,73.3,29.93,SE,124,0.0,0.0,94,0.00,,-RA,0.01,130.00,VWS V14.01,2013-06-01 09:45:00,
2013-06-01 05:50:00,75.1,73.3,29.93,ESE,123,0.0,0.0,94,0.00,,-RA,0.01,130.00,VWS V14.01,2013-06-01 09:50:00,
2013-06-01 05:55:00,75.0,73.2,29.94,ESE,123,0.0,0.0,94,0.00,,-RA,0.01,130.00,VWS V14.01,2013-06-01 09:55:00,
2013-06-01 06:00:00,75.0,73.2,29.94,ESE,123,0.0,0.0,94,0.00,,-RA,0.01,130.00,VWS V14.01,2013-06-01 10:00:00,
2013-06-01 06:05:00,75.0,73.2,29.94,ESE,123,0.0,0.0,94,0.00,,-RA,0.01,130.00,VWS V14.01,2013-06-01 10:05:00,
2013-06-01 06:10:00,74.9,73.1,29.94,ESE,123,0.0,0.0,94,0.00,,-RA,0.01,130.00,VWS V14.01,2013-06-01 10:10:00,
2013-06-01 06:15:00,74.9,73.1,29.94,ESE,123,0.0,0.0,94,0.00,,-RA,0.01,130.00,VWS V14.01,2013-06-01 10:15:00,
2013-06-01 06:20:00,74.9,73.1,29.95,ESE,123,0.0,0.0,94,0.00,,-RA,0.01,132.00,VWS V14.01,2013-06-01 10:20:00,
2013-06-01 06:25:00,75.0,73.5,29.95,ESE,123,0.0,0.0,95,0.00,,-RA,0.01,132.00,VWS V14.01,2013-06-01 10:25:00,
2013-06-01 06:30:00,74.9,73.4,29.95,ESE,123,0.0,0.0,95,0.00,,-RA,0.01,134.00,VWS V14.01,2013-06-01 10:30:00,
2013-06-01 06:35:00,74.9,73.4,29.95,ESE,123,0.0,0.0,95,0.00,,-RA,0.01,135.00,VWS V14.01,2013-06-01 10:35:00,
2013-06-01 06:40:00,75.0,73.5,29.95,ESE,123,0.0,0.0,95,0.00,,-RA,0.01,139.00,VWS V14.01,2013-06-01 10:40:00,
2013-06-01 06:45:00,74.9,73.4,29.95,SE,124,0.0,0.0,95,0.00,,-RA,0.01,144.00,VWS V14.01,2013-06-01 10:45:00,
2013-06-01 06:50:00,75.0,73.5,29.95,ESE,123,0.0,0.0,95,0.00,,-RA,0.01,153.00,VWS V14.01,2013-06-01 10:50:00,
2013-06-01 06:55:00,75.0,73.5,29.95,SE,124,0.0,0.0,95,0.00,,-RA,0.01,160.00,VWS V14.01,2013-06-01 10:55:00,
2013-06-01 07:00:00,75.1,73.6,29.95,ESE,123,0.0,0.0,95,0.00,,-RA,0.01,167.00,VWS V14.01,2013-06-01 11:00:00,
2013-06-01 07:05:00,75.1,73.6,29.96,ESE,123,0.0,0.0,95,0.00,,-RA,0.01,172.00,VWS V14.01,2013-06-01 11:05:00,
2013-06-01 07:10:00,75.2,73.7,29.96,ESE,123,0.0,0.0,95,0.00,,-RA,0.01,178.00,VWS V14.01,2013-06-01 11:10:00,
2013-06-01 07:15:00,75.2,73.7,29.96,ESE,123,0.0,0.0,95,0.00,,-RA,0.01,179.00,VWS V14.01,2013-06-01 11:15:00,
2013-06-01 07:20:00,75.3,73.8,29.97,ESE,123,0.0,0.0,95,0.00,,-RA,0.01,190.00,VWS V14.01,2013-06-01 11:20:00,
2013-06-01 07:25:00,75.4,73.9,29.97,SE,124,0.0,0.0,95,0.00,,-RA,0.01,211.00,VWS V14.01,2013-06-01 11:25:00,
2013-06-01 07:30:00,75.5,74.0,29.97,ESE,123,0.0,0.0,95,0.00,,-RA,0.01,211.00,VWS V14.01,2013-06-01 11:30:00,
2013-06-01 07:35:00,75.8,74.3,29.97,ESE,123,0.0,0.0,95,0.00,,-RA,0.01,288.00,VWS V14.01,2013-06-01 11:35:00,
2013-06-01 07:40:00,76.1,74.6,29.97,ESE,123,0.0,0.0,95,0.00,,-RA,0.01,206.00,VWS V14.01,2013-06-01 11:40:00,
2013-06-01 07:45:00,76.2,74.7,29.97,ESE,123,0.0,0.0,95,0.00,,-RA,0.01,209.00,VWS V14.01,2013-06-01 11:45:00,
2013-06-01 07:50:00,76.3,74.8,29.97,ESE,123,0.0,0.0,95,0.00,,-RA,0.01,281.00,VWS V14.01,2013-06-01 11:50:00,
2013-06-01 07:55:00,76.4,74.9,29.97,ESE,123,0.0,1.0,95,0.00,,-RA,0.01,223.00,VWS V14.01,2013-06-01 11:55:00,
2013-06-01 08:00:00,76.4,74.9,29.97,ESE,123,0.0,1.0,95,0.00,,-RA,0.01,221.00,VWS V14.01,2013-06-01 12:00:00,
2013-06-01 08:05:00,76.5,75.0,29.97,ESE,123,1.0,1.0,95,0.00,,-RA,0.01,243.00,VWS V14.01,2013-06-01 12:05:00,
2013-06-01 08:10:00,76.7,75.2,29.97,ESE,123,2.0,3.0,95,0.00,,-RA,0.01,288.00,VWS V14.01,2013-06-01 12:10:00,
2013-06-01 08:15:00,76.7,75.2,29.97,East,94,4.0,5.0,95,0.00,,-RA,0.01,250.00,VWS V14.01,2013-06-01 12:15:00,
2013-06-01 08:20:00,76.7,75.2,29.98,ENE,77,2.0,6.0,95,0.00,,-RA,0.01,271.00,VWS V14.01,2013-06-01 12:20:00,
2013-06-01 08:25:00,76.8,75.3,29.97,East,99,3.0,5.0,95,0.00,,-RA,0.01,288.00,VWS V14.01,2013-06-01 12:25:00,
2013-06-01 08:30:00,77.0,75.5,29.97,ENE,69,3.0,4.0,95,0.00,,-RA,0.01,306.00,VWS V14.01,2013-06-01 12:30:00,
2013-06-01 08:35:00,76.9,75.1,29.97,ESE,103,1.0,4.0,94,0.00,,-RA,0.01,316.00,VWS V14.01,2013-06-01 12:35:00,
2013-06-01 08:40:00,77.1,75.2,29.97,East,94,0.0,3.0,94,0.00,,-RA,0.01,262.00,VWS V14.01,2013-06-01 12:40:00,
2013-06-01 08:45:00,77.3,75.4,29.98,NNE,30,2.0,5.0,94,0.00,,-RA,0.01,473.00,VWS V14.01,2013-06-01 12:45:00,
2013-06-01 08:50:00,77.6,75.7,29.97,ENE,66,3.0,6.0,94,0.00,,-RA,0.01,497.00,VWS V14.01,2013-06-01 12:50:00,
2013-06-01 08:55:00,77.9,75.7,29.98,ENE,61,2.0,7.0,93,0.00,,-RA,0.01,504.00,VWS V14.01,2013-06-01 12:55:00,
2013-06-01 09:00:00,78.2,76.0,29.98,ENE,73,3.0,8.0,93,0.00,,-RA,0.01,541.00,VWS V14.01,2013-06-01 13:00:00,
2013-06-01 09:05:00,78.6,76.1,29.98,East,86,2.0,5.0,92,0.00,,-RA,0.01,545.00,VWS V14.01,2013-06-01 13:05:00,
2013-06-01 09:10:00,79.1,76.2,29.98,ENE,72,2.0,6.0,91,0.00,,-RA,0.01,555.00,VWS V14.01,2013-06-01 13:10:00,
2013-06-01 09:15:00,79.7,76.5,29.98,ESE,119,1.0,5.0,90,0.00,,-RA,0.01,578.00,VWS V14.01,2013-06-01 13:15:00,
2013-06-01 09:20:00,80.3,76.8,29.98,East,88,2.0,6.0,89,0.00,,-RA,0.01,598.00,VWS V14.01,2013-06-01 13:20:00,
2013-06-01 09:25:00,80.7,76.5,29.98,ENE,72,3.0,7.0,87,0.00,,-RA,0.01,633.00,VWS V14.01,2013-06-01 13:25:00,
2013-06-01 09:30:00,81.2,76.6,29.98,ENE,66,5.0,7.0,86,0.00,,-RA,0.01,661.00,VWS V14.01,2013-06-01 13:30:00,
2013-06-01 09:35:00,81.5,76.6,29.98,NNE,23,4.0,6.0,85,0.00,,-RA,0.01,675.00,VWS V14.01,2013-06-01 13:35:00,
2013-06-01 09:40:00,81.8,76.5,29.98,ENE,64,0.0,7.0,84,0.00,,-RA,0.01,668.00,VWS V14.01,2013-06-01 13:40:00,
2013-06-01 09:45:00,82.3,76.6,29.98,ENE,61,1.0,7.0,83,0.00,,-RA,0.01,784.00,VWS V14.01,2013-06-01 13:45:00,
2013-06-01 09:50:00,82.6,76.6,29.98,ENE,61,2.0,5.0,82,0.00,,-RA,0.01,357.00,VWS V14.01,2013-06-01 13:50:00,
2013-06-01 09:55:00,82.7,76.7,29.98,NE,55,3.0,6.0,82,0.00,,SCT026,0.01,494.00,VWS V14.01,2013-06-01 13:55:00,
2013-06-01 10:00:00,82.7,76.3,29.99,ESE,114,3.0,6.0,81,0.00,,SCT026,0.01,434.00,VWS V14.01,2013-06-01 14:00:00,
2013-06-01 10:05:00,82.5,75.7,29.99,ENE,72,4.0,9.0,80,0.00,,SCT026,0.01,352.00,VWS V14.01,2013-06-01 14:05:00,
2013-06-01 10:10:00,82.3,75.5,29.99,ESE,109,0.0,6.0,80,0.00,,SCT026,0.01,288.00,VWS V14.01,2013-06-01 14:10:00,
2013-06-01 10:15:00,82.1,75.3,29.98,ESE,103,4.0,11.0,80,0.00,,SCT026,0.01,258.00,VWS V14.01,2013-06-01 14:15:00,
2013-06-01 10:20:00,81.9,75.5,29.99,East,96,3.0,7.0,81,0.00,,SCT026,0.01,239.00,VWS V14.01,2013-06-01 14:20:00,
2013-06-01 10:25:00,81.7,75.3,29.99,East,96,1.0,7.0,81,0.00,,SCT026,0.01,225.00,VWS V14.01,2013-06-01 14:25:00,
2013-06-01 10:30:00,81.6,75.2,29.99,ESE,113,0.0,6.0,81,0.00,,SCT026,0.01,230.00,VWS V14.01,2013-06-01 14:30:00,
2013-06-01 10:35:00,81.5,75.1,29.99,ESE,122,5.0,10.0,81,0.00,,SCT026,0.01,257.00,VWS V14.01,2013-06-01 14:35:00,
2013-06-01 10:40:00,81.3,74.9,29.99,ESE,106,3.0,11.0,81,0.00,,SCT026,0.01,287.00,VWS V14.01,2013-06-01 14:40:00,
2013-06-01 10:45:00,81.3,74.9,29.99,ESE,103,4.0,9.0,81,0.00,,SCT026,0.01,279.00,VWS V14.01,2013-06-01 14:45:00,
2013-06-01 10:50:00,81.4,75.4,29.99,East,92,1.0,8.0,82,0.00,,SCT026,0.01,348.00,VWS V14.01,2013-06-01 14:50:00,
2013-06-01 10:55:00,81.5,75.1,29.99,ESE,112,5.0,7.0,81,0.00,,OVC040,0.01,388.00,VWS V14.01,2013-06-01 14:55:00,
2013-06-01 11:00:00,81.6,75.2,29.99,ESE,111,4.0,11.0,81,0.00,,OVC040,0.01,427.00,VWS V14.01,2013-06-01 15:00:00,
2013-06-01 11:05:00,81.7,74.9,29.99,ESE,103,4.0,6.0,80,0.00,,OVC040,0.01,429.00,VWS V14.01,2013-06-01 15:05:00,
2013-06-01 11:10:00,81.8,75.0,29.99,East,101,2.0,6.0,80,0.00,,OVC040,0.01,452.00,VWS V14.01,2013-06-01 15:10:00,
2013-06-01 11:15:00,81.8,75.0,29.99,East,83,5.0,9.0,80,0.00,,OVC040,0.01,482.00,VWS V14.01,2013-06-01 15:15:00,
2013-06-01 11:20:00,82.1,75.3,29.99,East,100,6.0,6.0,80,0.00,,OVC040,0.01,550.00,VWS V14.01,2013-06-01 15:20:00,
2013-06-01 11:25:00,82.3,75.1,29.99,East,85,4.0,11.0,79,0.00,,OVC040,0.01,591.00,VWS V14.01,2013-06-01 15:25:00,
2013-06-01 11:30:00,82.4,75.2,29.98,East,92,6.0,9.0,79,0.00,,OVC040,0.01,439.00,VWS V14.01,2013-06-01 15:30:00,
2013-06-01 11:35:00,82.7,75.9,29.99,ENE,75,2.0,6.0,80,0.00,,OVC040,0.01,531.00,VWS V14.01,2013-06-01 15:35:00,
2013-06-01 11:40:00,83.0,76.2,29.98,SE,135,9.0,10.0,80,0.00,,OVC040,0.01,513.00,VWS V14.01,2013-06-01 15:40:00,
2013-06-01 11:45:00,82.8,75.2,29.99,SE,138,8.0,11.0,78,0.00,,OVC040,0.01,635.00,VWS V14.01,2013-06-01 15:45:00,
2013-06-01 11:50:00,83.0,75.4,29.99,SSE,150,3.0,10.0,78,0.00,,OVC040,0.01,487.00,VWS V14.01,2013-06-01 15:50:00,
2013-06-01 11:55:00,83.1,74.8,29.99,South,170,4.0,11.0,76,0.00,,OVC040,0.01,441.00,VWS V14.01,2013-06-01 15:55:00,
2013-06-01 12:00:00,83.2,76.0,29.99,SSE,148,1.0,13.0,79,0.00,,OVC040,0.01,429.00,VWS V14.01,2013-06-01 16:00:00,
2013-06-01 12:05:00,83.1,76.3,29.99,SSE,161,1.0,9.0,80,0.00,,SCT019,0.01,499.00,VWS V14.01,2013-06-01 16:05:00,
2013-06-01 12:10:00,83.1,76.7,29.99,SSW,194,9.0,10.0,81,0.00,,SCT019,0.01,499.00,VWS V14.01,2013-06-01 16:10:00,
2013-06-01 12:15:00,83.0,76.6,29.99,South,188,5.0,10.0,81,0.00,,SCT019,0.01,468.00,VWS V14.01,2013-06-01 16:15:00,
2013-06-01 12:20:00,82.8,76.4,29.98,South,189,3.0,7.0,81,0.00,,SCT019,0.01,610.00,VWS V14.01,2013-06-01 16:20:00,
2013-06-01 12:25:00,82.7,76.3,29.98,SE,138,7.0,12.0,81,0.00,,SCT019,0.01,612.00,VWS V14.01,2013-06-01 16:25:00,
2013-06-01 12:30:00,82.7,76.7,29.98,SSW,200,3.0,9.0,82,0.00,,SCT019,0.01,657.00,VWS V14.01,2013-06-01 16:30:00,
2013-06-01 12:35:00,82.9,76.8,29.98,SSE,162,1.0,4.0,82,0.00,,SCT019,0.01,427.00,VWS V14.01,2013-06-01 16:35:00,
2013-06-01 12:40:00,82.8,76.8,29.98,East,101,1.0,7.0,82,0.00,,SCT019,0.01,281.00,VWS V14.01,2013-06-01 16:40:00,
2013-06-01 12:45:00,81.9,75.1,29.98,East,93,3.0,5.0,80,0.00,,SCT019,0.01,348.00,VWS V14.01,2013-06-01 16:45:00,
2013-06-01 12:50:00,81.6,75.2,29.98,East,96,10.0,11.0,81,0.00,,SCT019,0.01,343.00,VWS V14.01,2013-06-01 16:50:00,
2013-06-01 12:55:00,81.2,74.8,29.98,East,86,9.0,12.0,81,0.00,,SCT019,0.01,329.00,VWS V14.01,2013-06-01 16:55:00,
2013-06-01 13:00:00,81.0,75.7,29.97,ENE,76,3.0,5.0,84,0.10,,BKN039,0.11,294.00,VWS V14.01,2013-06-01 17:00:00,
2013-06-01 13:05:00,80.2,75.3,29.98,ENE,65,1.0,6.0,85,0.11,,BKN039,0.12,278.00,VWS V14.01,2013-06-01 17:05:00,
2013-06-01 13:10:00,79.5,74.9,29.98,East,80,2.0,9.0,86,0.11,,BKN039,0.12,264.00,VWS V14.01,2013-06-01 17:10:00,
2013-06-01 13:15:00,79.1,74.9,29.97,East,84,0.0,5.0,87,0.14,,BKN039,0.15,302.00,VWS V14.01,2013-06-01 17:15:00,
2013-06-01 13:20:00,79.0,75.2,29.97,East,82,0.0,3.0,88,0.16,,BKN039,0.17,364.00,VWS V14.01,2013-06-01 17:20:00,
2013-06-01 13:25:00,79.1,75.6,29.97,ENE,76,2.0,5.0,89,0.17,,BKN039,0.18,334.00,VWS V14.01,2013-06-01 17:25:00,
2013-06-01 13:30:00,79.0,75.5,29.97,East,92,0.0,6.0,89,0.18,,BKN039,0.19,220.00,VWS V14.01,2013-06-01 17:30:00,
2013-06-01 13:35:00,78.6,75.1,29.97,ENE,78,3.0,5.0,89,0.18,,BKN039,0.19,200.00,VWS V14.01,2013-06-01 17:35:00,
2013-06-01 13:40:00,78.6,75.4,29.97,ENE,61,4.0,4.0,90,0.22,,BKN039,0.23,197.00,VWS V14.01,2013-06-01 17:40:00,
2013-06-01 13:45:00,78.6,75.4,29.97,ENE,65,2.0,7.0,90,0.24,,BKN039,0.25,213.00,VWS V14.01,2013-06-01 17:45:00,
2013-06-01 13:50:00,78.3,75.1,29.97,ENE,77,4.0,10.0,90,0.28,,BKN039,0.29,207.00,VWS V14.01,2013-06-01 17:50:00,
2013-06-01 13:55:00,77.8,74.6,29.97,NNE,31,4.0,12.0,90,0.31,,BKN039,0.32,183.00,VWS V14.01,2013-06-01 17:55:00,
2013-06-01 14:00:00,77.1,74.3,29.97,NNE,25,3.0,9.0,91,0.30,,OVC017,0.36,174.00,VWS V14.01,2013-06-01 18:00:00,
2013-06-01 14:05:00,76.8,74.0,29.97,ENE,59,5.0,11.0,91,0.25,,OVC017,0.37,172.00,VWS V14.01,2013-06-01 18:05:00,
2013-06-01 14:10:00,76.4,73.9,29.97,NE,42,6.0,15.0,92,0.59,,OVC017,0.71,162.00,VWS V14.01,2013-06-01 18:10:00,
2013-06-01 14:15:00,76.0,73.5,29.97,ENE,78,10.0,13.0,92,0.75,,OVC017,0.89,144.00,VWS V14.01,2013-06-01 18:15:00,
2013-06-01 14:20:00,75.7,73.2,29.97,ENE,74,6.0,11.0,92,0.95,,OVC017,1.11,139.00,VWS V14.01,2013-06-01 18:20:00,
2013-06-01 14:25:00,75.5,73.3,29.98,ENE,64,7.0,9.0,93,1.19,,OVC017,1.36,137.00,VWS V14.01,2013-06-01 18:25:00,
2013-06-01 14:30:00,75.3,73.1,29.97,ENE,63,7.0,10.0,93,1.51,,OVC017,1.69,137.00,VWS V14.01,2013-06-01 18:30:00,
2013-06-01 14:35:00,74.7,72.6,29.97,ENE,61,7.0,13.0,93,1.85,,OVC017,2.04,139.00,VWS V14.01,2013-06-01 18:35:00,
2013-06-01 14:40:00,74.5,72.3,29.97,NNE,26,9.0,14.0,93,2.07,,OVC017,2.28,139.00,VWS V14.01,2013-06-01 18:40:00,
2013-06-01 14:45:00,74.5,72.7,29.97,NNE,24,5.0,8.0,94,2.22,,OVC017,2.46,141.00,VWS V14.01,2013-06-01 18:45:00,
2013-06-01 14:50:00,75.0,73.2,29.97,NE,53,4.0,8.0,94,2.34,,OVC017,2.61,139.00,VWS V14.01,2013-06-01 18:50:00,
2013-06-01 14:55:00,75.0,73.2,29.97,NNE,26,6.0,10.0,94,2.62,,OVC017,2.92,137.00,VWS V14.01,2013-06-01 18:55:00,
2013-06-01 15:00:00,75.2,73.4,29.97,ENE,76,6.0,10.0,94,2.78,,OVC017,3.11,139.00,VWS V14.01,2013-06-01 19:00:00,
2013-06-01 15:05:00,74.8,73.0,29.97,East,89,4.0,8.0,94,2.95,,OVC050,3.32,142.00,VWS V14.01,2013-06-01 19:05:00,
2013-06-01 15:10:00,74.6,72.8,29.97,NNE,22,1.0,7.0,94,2.79,,OVC050,3.42,142.00,VWS V14.01,2013-06-01 19:10:00,
2013-06-01 15:15:00,74.6,72.8,29.97,NE,46,0.0,3.0,94,2.63,,OVC050,3.47,141.00,VWS V14.01,2013-06-01 19:15:00,
2013-06-01 15:20:00,74.5,73.0,29.97,ENE,59,0.0,3.0,95,2.52,,OVC050,3.49,141.00,VWS V14.01,2013-06-01 19:20:00,
2013-06-01 15:25:00,74.6,73.1,29.96,ENE,59,0.0,1.0,95,2.27,,OVC050,3.51,141.00,VWS V14.01,2013-06-01 19:25:00,
2013-06-01 15:30:00,74.6,73.1,29.96,ENE,59,1.0,3.0,95,1.99,,OVC050,3.52,141.00,VWS V14.01,2013-06-01 19:30:00,
2013-06-01 15:35:00,74.8,73.3,29.96,ENE,61,0.0,3.0,95,1.65,,OVC050,3.54,137.00,VWS V14.01,2013-06-01 19:35:00,
2013-06-01 15:40:00,74.9,73.4,29.96,ESE,111,0.0,5.0,95,1.37,,OVC050,3.55,134.00,VWS V14.01,2013-06-01 19:40:00,
2013-06-01 15:45:00,75.0,73.5,29.95,East,96,1.0,4.0,95,1.18,,OVC050,3.56,132.00,VWS V14.01,2013-06-01 19:45:00,
2013-06-01 15:50:00,75.0,73.5,29.95,East,96,2.0,4.0,95,1.02,,OVC050,3.56,134.00,VWS V14.01,2013-06-01 19:50:00,
2013-06-01 15:55:00,74.9,73.4,29.95,East,86,2.0,5.0,95,0.79,,OVC050,3.56,137.00,VWS V14.01,2013-06-01 19:55:00,
2013-06-01 16:00:00,74.9,73.4,29.95,East,82,2.0,3.0,95,0.54,,OVC050,3.57,139.00,VWS V14.01,2013-06-01 20:00:00,
2013-06-01 16:05:00,74.8,73.3,29.95,East,88,1.0,4.0,95,0.32,,OVC050,3.57,134.00,VWS V14.01,2013-06-01 20:05:00,
2013-06-01 16:10:00,74.7,73.2,29.95,East,98,1.0,5.0,95,0.19,,OVC060,3.57,134.00,VWS V14.01,2013-06-01 20:10:00,
2013-06-01 16:15:00,74.6,73.1,29.95,East,94,1.0,5.0,95,0.12,,OVC060,3.57,135.00,VWS V14.01,2013-06-01 20:15:00,
2013-06-01 16:20:00,74.7,73.2,29.95,East,92,0.0,3.0,95,0.09,,OVC060,3.57,137.00,VWS V14.01,2013-06-01 20:20:00,
2013-06-01 16:25:00,74.7,73.2,29.95,East,90,1.0,4.0,95,0.06,,OVC060,3.57,135.00,VWS V14.01,2013-06-01 20:25:00,
2013-06-01 16:30:00,74.7,73.2,29.95,East,87,0.0,4.0,95,0.06,,OVC060,3.58,132.00,VWS V14.01,2013-06-01 20:30:00,
2013-06-01 16:35:00,74.7,73.2,29.95,ENE,61,0.0,2.0,95,0.06,,OVC060,3.59,134.00,VWS V14.01,2013-06-01 20:35:00,
2013-06-01 16:40:00,74.7,73.2,29.95,ENE,61,0.0,1.0,95,0.06,,OVC060,3.61,134.00,VWS V14.01,2013-06-01 20:40:00,
2013-06-01 16:45:00,74.7,73.2,29.95,ENE,61,1.0,2.0,95,0.06,,OVC060,3.62,134.00,VWS V14.01,2013-06-01 20:45:00,
2013-06-01 16:50:00,74.8,73.3,29.95,ENE,63,3.0,3.0,95,0.08,,OVC060,3.64,134.00,VWS V14.01,2013-06-01 20:50:00,
2013-06-01 16:55:00,74.9,73.4,29.95,ENE,69,0.0,5.0,95,0.10,,OVC060,3.66,135.00,VWS V14.01,2013-06-01 20:55:00,
2013-06-01 17:00:00,74.9,73.4,29.95,ENE,63,1.0,2.0,95,0.10,,RA,3.67,134.00,VWS V14.01,2013-06-01 21:00:00,
2013-06-01 17:05:00,74.9,73.4,29.95,ENE,63,2.0,3.0,95,0.10,,RA,3.67,132.00,VWS V14.01,2013-06-01 21:05:00,
2013-06-01 17:10:00,74.9,73.7,29.95,ENE,63,0.0,3.0,96,0.10,,RA,3.67,132.00,VWS V14.01,2013-06-01 21:10:00,
2013-06-01 17:15:00,74.9,73.7,29.95,ENE,65,3.0,4.0,96,0.10,,RA,3.67,132.00,VWS V14.01,2013-06-01 21:15:00,
2013-06-01 17:20:00,74.7,73.5,29.95,ESE,107,5.0,5.0,96,0.10,,RA,3.67,132.00,VWS V14.01,2013-06-01 21:20:00,
2013-06-01 17:25:00,74.6,73.4,29.94,ESE,110,2.0,6.0,96,0.11,,RA,3.68,134.00,VWS V14.01,2013-06-01 21:25:00,
2013-06-01 17:30:00,74.6,73.4,29.93,SE,136,4.0,5.0,96,0.11,,RA,3.68,134.00,VWS V14.01,2013-06-01 21:30:00,
2013-06-01 17:35:00,74.6,73.4,29.94,SE,132,2.0,4.0,96,0.10,,RA,3.68,134.00,VWS V14.01,2013-06-01 21:35:00,
2013-06-01 17:40:00,74.6,73.4,29.94,SE,130,0.0,1.0,96,0.08,,RA,3.68,134.00,VWS V14.01,2013-06-01 21:40:00,
2013-06-01 17:45:00,74.7,73.5,29.94,SE,130,0.0,1.0,96,0.07,,RA,3.68,134.00,VWS V14.01,2013-06-01 21:45:00,
2013-06-01 17:50:00,74.7,73.5,29.94,SE,129,0.0,2.0,96,0.05,,RA,3.68,134.00,VWS V14.01,2013-06-01 21:50:00,
2013-06-01 17:55:00,74.8,73.6,29.94,ESE,111,3.0,4.0,96,0.03,,RA,3.68,135.00,VWS V14.01,2013-06-01 21:55:00,
2013-06-01 18:00:00,74.9,73.7,29.95,ESE,111,0.0,1.0,96,0.02,,RA,3.68,135.00,VWS V14.01,2013-06-01 22:00:00,
2013-06-01 18:05:00,75.0,73.8,29.95,ESE,112,1.0,3.0,96,0.02,,RA,3.69,135.00,VWS V14.01,2013-06-01 22:05:00,
2013-06-01 18:10:00,75.0,73.8,29.95,ESE,111,0.0,1.0,96,0.02,,RA,3.69,135.00,VWS V14.01,2013-06-01 22:10:00,
2013-06-01 18:15:00,75.1,73.9,29.96,ESE,111,2.0,2.0,96,0.02,,RA,3.69,137.00,VWS V14.01,2013-06-01 22:15:00,
2013-06-01 18:20:00,75.0,73.8,29.96,ESE,112,0.0,0.0,96,0.03,,RA,3.70,139.00,VWS V14.01,2013-06-01 22:20:00,
2013-06-01 18:25:00,75.1,73.9,29.97,ESE,111,2.0,2.0,96,0.03,,RA,3.71,139.00,VWS V14.01,2013-06-01 22:25:00,
2013-06-01 18:30:00,75.1,73.9,29.97,ESE,112,0.0,0.0,96,0.03,,RA,3.71,137.00,VWS V14.01,2013-06-01 22:30:00,
2013-06-01 18:35:00,75.2,74.0,29.97,ESE,112,0.0,0.0,96,0.05,,RA,3.73,137.00,VWS V14.01,2013-06-01 22:35:00,
2013-06-01 18:40:00,75.3,74.1,29.97,ESE,111,0.0,0.0,96,0.05,,RA,3.73,135.00,VWS V14.01,2013-06-01 22:40:00,
2013-06-01 18:45:00,75.3,74.1,29.96,ESE,112,0.0,1.0,96,0.06,,RA,3.74,135.00,VWS V14.01,2013-06-01 22:45:00,
2013-06-01 18:50:00,75.4,74.2,29.96,ESE,112,0.0,0.0,96,0.06,,RA,3.74,137.00,VWS V14.01,2013-06-01 22:50:00,
2013-06-01 18:55:00,75.4,74.2,29.96,ESE,112,0.0,1.0,96,0.06,,RA,3.74,137.00,VWS V14.01,2013-06-01 22:55:00,
2013-06-01 19:00:00,75.4,74.2,29.96,ESE,111,0.0,1.0,96,0.07,,RA,3.75,137.00,VWS V14.01,2013-06-01 23:00:00,
2013-06-01 19:05:00,75.5,74.3,29.96,ESE,111,1.0,1.0,96,0.06,,RA,3.75,139.00,VWS V14.01,2013-06-01 23:05:00,
2013-06-01 19:10:00,75.4,74.2,29.96,SSE,150,2.0,3.0,96,0.06,,RA,3.75,139.00,VWS V14.01,2013-06-01 23:10:00,
2013-06-01 19:15:00,75.4,74.2,29.96,South,175,3.0,5.0,96,0.06,,RA,3.75,139.00,VWS V14.01,2013-06-01 23:15:00,
2013-06-01 19:20:00,75.4,74.2,29.96,South,181,6.0,6.0,96,0.06,,RA,3.75,137.00,VWS V14.01,2013-06-01 23:20:00,
2013-06-01 19:25:00,75.3,74.1,29.95,SSW,200,3.0,6.0,96,0.05,,RA,3.75,134.00,VWS V14.01,2013-06-01 23:25:00,
2013-06-01 19:30:00,75.1,73.9,29.95,SSE,156,4.0,9.0,96,0.04,,RA,3.75,135.00,VWS V14.01,2013-06-01 23:30:00,
2013-06-01 19:35:00,74.4,73.2,29.95,SW,215,0.0,3.0,96,0.03,,RA,3.75,135.00,VWS V14.01,2013-06-01 23:35:00,
2013-06-01 19:39:00,74.1,72.9,29.96,SSW,203,0.0,1.0,96,0.02,,RA,3.75,135.00,VWS V14.01,2013-06-01 23:39:00,
2013-06-01 19:44:00,73.8,72.6,29.96,South,186,1.0,5.0,96,0.02,,RA,3.75,134.00,VWS V14.01,2013-06-01 23:44:00,
2013-06-01 19:49:00,73.5,72.3,29.96,South,190,2.0,2.0,96,0.01,,RA,3.75,130.00,VWS V14.01,2013-06-01 23:49:00,
2013-06-01 19:54:00,73.2,72.0,29.96,SSW,208,2.0,3.0,96,0.01,,RA,3.75,127.00,VWS V14.01,2013-06-01 23:54:00,
2013-06-01 19:59:00,73.0,71.8,29.96,SSW,209,0.0,2.0,96,0.00,,RA,3.75,127.00,VWS V14.01,2013-06-01 23:59:00,
2013-06-01 20:04:00,72.9,71.7,29.97,SSW,209,0.0,1.0,96,0.00,,RA,3.75,125.00,VWS V14.01,2013-06-02 00:04:00,
2013-06-01 20:09:00,72.9,71.7,29.97,SSW,210,0.0,0.0,96,0.00,,OVC095,3.75,125.00,VWS V14.01,2013-06-02 00:09:00,
2013-06-01 20:14:00,72.9,71.7,29.97,SSW,210,0.0,0.0,96,0.00,,OVC095,3.75,125.00,VWS V14.01,2013-06-02 00:14:00,
2013-06-01 20:19:00,72.9,71.7,29.97,SSW,209,0.0,0.0,96,0.00,,OVC095,3.75,123.00,VWS V14.01,2013-06-02 00:19:00,
2013-06-01 20:24:00,72.8,71.6,29.97,SSW,209,0.0,0.0,96,0.00,,OVC095,3.75,123.00,VWS V14.01,2013-06-02 00:24:00,
2013-06-01 20:29:00,72.8,71.6,29.97,SSW,209,0.0,0.0,96,0.00,,OVC095,3.75,123.00,VWS V14.01,2013-06-02 00:29:00,
2013-06-01 20:34:00,72.8,71.6,29.97,SSW,209,0.0,0.0,96,0.00,,OVC095,3.75,123.00,VWS V14.01,2013-06-02 00:34:00,
2013-06-01 20:39:00,72.8,71.6,29.97,SSW,210,0.0,1.0,96,0.00,,OVC095,3.75,123.00,VWS V14.01,2013-06-02 00:39:00,
2013-06-01 20:44:00,72.9,71.7,29.97,SSW,209,0.0,2.0,96,0.00,,OVC095,3.75,123.00,VWS V14.01,2013-06-02 00:44:00,
2013-06-01 20:49:00,72.9,71.7,29.97,SSW,210,0.0,3.0,96,0.00,,OVC095,3.75,123.00,VWS V14.01,2013-06-02 00:49:00,
2013-06-01 20:54:00,73.0,71.8,29.97,SSW,209,0.0,1.0,96,0.00,,OVC095,3.75,123.00,VWS V14.01,2013-06-02 00:54:00,
2013-06-01 20:59:00,72.9,71.7,29.97,SSW,210,0.0,2.0,96,0.00,,OVC095,3.75,123.00,VWS V14.01,2013-06-02 00:59:00,
2013-06-01 21:04:00,73.0,71.8,29.97,SSW,209,1.0,2.0,96,0.00,,SCT0060,3.75,123.00,VWS V14.01,2013-06-02 01:04:00,
2013-06-01 21:09:00,73.0,71.8,29.97,SSW,210,0.0,1.0,96,0.00,,SCT0060,3.75,123.00,VWS V14.01,2013-06-02 01:09:00,
2013-06-01 21:14:00,73.0,71.8,29.96,SSW,209,0.0,1.0,96,0.00,,SCT0060,3.75,123.00,VWS V14.01,2013-06-02 01:14:00,
2013-06-01 21:19:00,73.0,71.8,29.96,SSW,209,0.0,0.0,96,0.00,,SCT0060,3.75,121.00,VWS V14.01,2013-06-02 01:19:00,
2013-06-01 21:24:00,73.0,71.8,29.97,SSW,210,0.0,0.0,96,0.00,,SCT0060,3.75,121.00,VWS V14.01,2013-06-02 01:24:00,
2013-06-01 21:29:00,73.0,71.8,29.97,SSW,209,0.0,0.0,96,0.00,,SCT0060,3.75,121.00,VWS V14.01,2013-06-02 01:29:00,
2013-06-01 21:34:00,73.0,71.8,29.97,SSW,209,0.0,0.0,96,0.00,,SCT0060,3.75,121.00,VWS V14.01,2013-06-02 01:34:00,
2013-06-01 21:39:00,73.0,71.8,29.97,SSW,210,0.0,0.0,96,0.00,,SCT0060,3.75,121.00,VWS V14.01,2013-06-02 01:39:00,
2013-06-01 21:44:00,73.1,71.9,29.97,SSW,210,0.0,0.0,96,0.00,,SCT0060,3.75,121.00,VWS V14.01,2013-06-02 01:44:00,
2013-06-01 21:49:00,73.1,71.9,29.97,SSW,209,0.0,0.0,96,0.00,,SCT0060,3.75,121.00,VWS V14.01,2013-06-02 01:49:00,
2013-06-01 21:54:00,73.1,71.9,29.97,SSW,209,0.0,0.0,96,0.00,,SCT0060,3.75,120.00,VWS V14.01,2013-06-02 01:54:00,
2013-06-01 21:59:00,73.1,71.9,29.96,SSW,209,0.0,0.0,96,0.00,,SCT0060,3.75,120.00,VWS V14.01,2013-06-02 01:59:00,
2013-06-01 22:04:00,73.2,72.0,29.97,SSW,209,0.0,0.0,96,0.00,,SCT0060,3.75,120.00,VWS V14.01,2013-06-02 02:04:00,
2013-06-01 22:09:00,73.3,72.1,29.97,SSW,209,1.0,2.0,96,0.00,,SCT0060,3.75,118.00,VWS V14.01,2013-06-02 02:09:00,
2013-06-01 22:14:00,73.3,72.1,29.97,SSW,209,0.0,2.0,96,0.00,,SCT0060,3.75,116.00,VWS V14.01,2013-06-02 02:14:00,
2013-06-01 22:19:00,73.3,72.1,29.97,SSW,209,0.0,0.0,96,0.00,,FEW0060,3.75,105.00,VWS V14.01,2013-06-02 02:19:00,
2013-06-01 22:24:00,73.3,72.1,29.98,SSW,209,0.0,0.0,96,0.00,,FEW0060,3.75,95.00,VWS V14.01,2013-06-02 02:24:00,
2013-06-01 22:29:00,73.4,72.2,29.98,SSW,209,0.0,2.0,96,0.00,,FEW0060,3.75,86.00,VWS V14.01,2013-06-02 02:29:00,
2013-06-01 22:34:00,73.4,72.2,29.98,SSW,209,0.0,1.0,96,0.00,,FEW0060,3.75,81.00,VWS V14.01,2013-06-02 02:34:00,
2013-06-01 22:39:00,73.4,72.2,29.98,SSW,209,0.0,0.0,96,0.00,,FEW0060,3.75,70.00,VWS V14.01,2013-06-02 02:39:00,
2013-06-01 22:44:00,73.4,72.2,29.97,SSW,209,0.0,0.0,96,0.00,,FEW0060,3.75,0.00,VWS V14.01,2013-06-02 02:44:00,
2013-06-01 22:49:00,73.3,72.1,29.97,SSW,209,0.0,0.0,96,0.00,,FEW0060,3.75,0.00,VWS V14.01,2013-06-02 02:49:00,
2013-06-01 22:54:00,73.4,72.2,29.97,SSW,210,0.0,0.0,96,0.00,,FEW0060,3.75,0.00,VWS V14.01,2013-06-02 02:54:00,
2013-06-01 22:59:00,73.4,72.2,29.98,SSW,209,0.0,0.0,96,0.00,,FEW0060,3.75,0.00,VWS V14.01,2013-06-02 02:59:00,
2013-06-01 23:04:00,73.5,72.3,29.98,SSW,210,0.0,1.0,96,0.00,,FEW0060,3.75,0.00,VWS V14.01,2013-06-02 03:04:00,
2013-06-01 23:09:00,73.5,72.3,29.98,SSW,209,0.0,0.0,96,0.00,,FEW0060,3.75,0.00,VWS V14.01,2013-06-02 03:09:00,
2013-06-01 23:14:00,73.5,72.3,29.98,SSW,210,0.0,0.0,96,0.00,,FEW0060,3.75,0.00,VWS V14.01,2013-06-02 03:14:00,
2013-06-01 23:19:00,73.6,72.4,29.97,SSW,209,0.0,0.0,96,0.00,,FEW0060,3.75,0.00,VWS V14.01,2013-06-02 03:19:00,
2013-06-01 23:24:00,73.6,72.4,29.97,SSW,210,0.0,0.0,96,0.00,,FEW0060,3.75,0.00,VWS V14.01,2013-06-02 03:24:00,
2013-06-01 23:29:00,73.6,72.4,29.97,SSW,209,1.0,2.0,96,0.00,,FEW0060,3.75,0.00,VWS V14.01,2013-06-02 03:29:00,
2013-06-01 23:34:00,73.6,72.4,29.98,SSW,210,1.0,2.0,96,0.00,,FEW0060,3.75,0.00,VWS V14.01,2013-06-02 03:34:00,
2013-06-01 23:39:00,73.6,72.4,29.98,SSW,209,0.0,2.0,96,0.00,,FEW0060,3.75,0.00,VWS V14.01,2013-06-02 03:39:00,
2013-06-01 23:44:00,73.6,72.4,29.98,SSW,209,0.0,0.0,96,0.00,,FEW0060,3.75,0.00,VWS V14.01,2013-06-02 03:44:00,
2013-06-01 23:49:00,73.6,72.7,29.98,SSW,210,0.0,0.0,97,0.00,,FEW0060,3.75,0.00,VWS V14.01,2013-06-02 03:49:00,
2013-06-01 23:54:00,73.6,72.7,29.98,SSW,210,0.0,1.0,97,0.00,,FEW0060,3.75,0.00,VWS V14.01,2013-06-02 03:54:00,
2013-06-01 23:59:00,73.6,72.7,29.98,SSW,210,0.0,0.0,97,0.00,,FEW0060,3.75,0.00,VWS V14.01,2013-06-02 03:59:00,